sensor_id;sensor_type;location;lat;lon;timestamp;P1;durP1;ratioP1;P2;durP2;ratioP2
53207;SDS011;39093;52.788;6.940;2022-08-01T00:00:06;6.18;;;4.45;;
53207;SDS011;39093;52.788;6.940;2022-08-01T00:02:35;4.95;;;4.25;;
53207;SDS011;39093;52.788;6.940;2022-08-01T00:05:07;5.10;;;4.47;;
53207;SDS011;39093;52.788;6.940;2022-08-01T00:07:35;5.63;;;3.60;;
53207;SDS011;39093;52.788;6.940;2022-08-01T00:10:03;4.55;;;3.60;;
53207;SDS011;39093;52.788;6.940;2022-08-01T00:12:31;5.72;;;4.35;;
53207;SDS011;39093;52.788;6.940;2022-08-01T00:14:58;6.38;;;4.18;;
53207;SDS011;39093;52.788;6.940;2022-08-01T00:17:25;7.63;;;5.10;;
53207;SDS011;39093;52.788;6.940;2022-08-01T00:19:52;5.03;;;4.38;;
53207;SDS011;39093;52.788;6.940;2022-08-01T00:22:19;7.20;;;5.10;;
53207;SDS011;39093;52.788;6.940;2022-08-01T00:24:46;4.90;;;4.40;;
53207;SDS011;39093;52.788;6.940;2022-08-01T00:27:13;11.20;;;4.63;;
53207;SDS011;39093;52.788;6.940;2022-08-01T00:29:39;7.88;;;5.55;;
53207;SDS011;39093;52.788;6.940;2022-08-01T00:32:26;6.47;;;5.10;;
53207;SDS011;39093;52.788;6.940;2022-08-01T00:34:55;7.35;;;5.45;;
53207;SDS011;39093;52.788;6.940;2022-08-01T00:37:22;7.50;;;5.30;;
53207;SDS011;39093;52.788;6.940;2022-08-01T00:39:49;7.85;;;6.22;;
53207;SDS011;39093;52.788;6.940;2022-08-01T00:42:16;10.43;;;6.45;;
53207;SDS011;39093;52.788;6.940;2022-08-01T00:44:43;8.43;;;7.05;;
53207;SDS011;39093;52.788;6.940;2022-08-01T00:47:10;9.63;;;6.07;;
53207;SDS011;39093;52.788;6.940;2022-08-01T00:49:36;11.07;;;6.43;;
53207;SDS011;39093;52.788;6.940;2022-08-01T00:52:03;8.82;;;7.20;;
53207;SDS011;39093;52.788;6.940;2022-08-01T00:54:32;10.90;;;7.13;;
53207;SDS011;39093;52.788;6.940;2022-08-01T00:56:59;15.18;;;7.10;;
53207;SDS011;39093;52.788;6.940;2022-08-01T00:59:26;12.93;;;6.80;;
53207;SDS011;39093;52.788;6.940;2022-08-01T01:01:53;10.35;;;7.35;;
53207;SDS011;39093;52.788;6.940;2022-08-01T01:04:21;10.43;;;7.72;;
53207;SDS011;39093;52.788;6.940;2022-08-01T01:06:50;9.02;;;7.32;;
53207;SDS011;39093;52.788;6.940;2022-08-01T01:09:23;13.35;;;7.65;;
53207;SDS011;39093;52.788;6.940;2022-08-01T01:15:08;10.70;;;7.07;;
53207;SDS011;39093;52.788;6.940;2022-08-01T01:17:56;14.07;;;7.65;;
53207;SDS011;39093;52.788;6.940;2022-08-01T01:20:40;15.73;;;9.00;;
53207;SDS011;39093;52.788;6.940;2022-08-01T01:23:20;13.75;;;8.73;;
53207;SDS011;39093;52.788;6.940;2022-08-01T01:26:31;16.75;;;8.52;;
53207;SDS011;39093;52.788;6.940;2022-08-01T01:31:50;13.93;;;9.15;;
53207;SDS011;39093;52.788;6.940;2022-08-01T01:34:22;11.07;;;8.23;;
53207;SDS011;39093;52.788;6.940;2022-08-01T01:36:51;13.93;;;8.98;;
53207;SDS011;39093;52.788;6.940;2022-08-01T01:39:20;12.75;;;8.10;;
53207;SDS011;39093;52.788;6.940;2022-08-01T01:41:49;9.75;;;7.00;;
53207;SDS011;39093;52.788;6.940;2022-08-01T01:44:17;12.27;;;7.70;;
53207;SDS011;39093;52.788;6.940;2022-08-01T01:46:44;12.77;;;7.68;;
53207;SDS011;39093;52.788;6.940;2022-08-01T01:49:13;11.48;;;7.13;;
53207;SDS011;39093;52.788;6.940;2022-08-01T01:51:41;12.32;;;7.63;;
53207;SDS011;39093;52.788;6.940;2022-08-01T01:54:28;13.65;;;7.72;;
53207;SDS011;39093;52.788;6.940;2022-08-01T01:56:59;16.23;;;8.90;;
53207;SDS011;39093;52.788;6.940;2022-08-01T01:59:28;12.13;;;8.15;;
53207;SDS011;39093;52.788;6.940;2022-08-01T02:01:58;13.95;;;8.38;;
53207;SDS011;39093;52.788;6.940;2022-08-01T02:04:32;11.98;;;7.78;;
53207;SDS011;39093;52.788;6.940;2022-08-01T02:07:02;15.90;;;8.40;;
53207;SDS011;39093;52.788;6.940;2022-08-01T02:09:29;11.15;;;8.05;;
53207;SDS011;39093;52.788;6.940;2022-08-01T02:11:58;17.02;;;8.32;;
53207;SDS011;39093;52.788;6.940;2022-08-01T02:14:34;13.85;;;8.38;;
53207;SDS011;39093;52.788;6.940;2022-08-01T02:17:03;15.30;;;8.95;;
53207;SDS011;39093;52.788;6.940;2022-08-01T02:19:30;9.35;;;7.03;;
53207;SDS011;39093;52.788;6.940;2022-08-01T02:22:11;17.90;;;9.02;;
53207;SDS011;39093;52.788;6.940;2022-08-01T02:25:05;11.40;;;8.23;;
53207;SDS011;39093;52.788;6.940;2022-08-01T02:27:40;9.73;;;6.75;;
53207;SDS011;39093;52.788;6.940;2022-08-01T02:30:20;10.60;;;6.40;;
53207;SDS011;39093;52.788;6.940;2022-08-01T02:32:58;9.02;;;6.18;;
53207;SDS011;39093;52.788;6.940;2022-08-01T02:35:30;7.75;;;5.90;;
53207;SDS011;39093;52.788;6.940;2022-08-01T02:38:22;9.95;;;5.78;;
53207;SDS011;39093;52.788;6.940;2022-08-01T02:40:52;7.07;;;5.00;;
53207;SDS011;39093;52.788;6.940;2022-08-01T02:43:21;10.50;;;5.50;;
53207;SDS011;39093;52.788;6.940;2022-08-01T02:45:51;11.98;;;5.93;;
53207;SDS011;39093;52.788;6.940;2022-08-01T02:48:21;8.18;;;5.25;;
53207;SDS011;39093;52.788;6.940;2022-08-01T02:50:52;6.25;;;5.07;;
53207;SDS011;39093;52.788;6.940;2022-08-01T02:53:21;5.20;;;4.43;;
53207;SDS011;39093;52.788;6.940;2022-08-01T02:56:10;5.97;;;4.55;;
53207;SDS011;39093;52.788;6.940;2022-08-01T02:58:39;9.32;;;4.82;;
53207;SDS011;39093;52.788;6.940;2022-08-01T03:01:08;6.60;;;4.13;;
53207;SDS011;39093;52.788;6.940;2022-08-01T03:03:36;6.82;;;4.18;;
53207;SDS011;39093;52.788;6.940;2022-08-01T03:06:03;9.50;;;4.03;;
53207;SDS011;39093;52.788;6.940;2022-08-01T03:08:31;8.48;;;3.75;;
53207;SDS011;39093;52.788;6.940;2022-08-01T03:11:00;4.35;;;3.35;;
53207;SDS011;39093;52.788;6.940;2022-08-01T03:13:29;6.53;;;3.30;;
53207;SDS011;39093;52.788;6.940;2022-08-01T03:15:58;6.43;;;3.92;;
53207;SDS011;39093;52.788;6.940;2022-08-01T03:18:26;7.25;;;3.17;;
53207;SDS011;39093;52.788;6.940;2022-08-01T03:20:55;13.05;;;3.88;;
53207;SDS011;39093;52.788;6.940;2022-08-01T03:23:24;6.32;;;3.58;;
53207;SDS011;39093;52.788;6.940;2022-08-01T03:26:03;5.75;;;2.85;;
53207;SDS011;39093;52.788;6.940;2022-08-01T03:28:32;7.13;;;3.05;;
53207;SDS011;39093;52.788;6.940;2022-08-01T03:30:59;3.88;;;2.70;;
53207;SDS011;39093;52.788;6.940;2022-08-01T03:33:27;5.40;;;2.42;;
53207;SDS011;39093;52.788;6.940;2022-08-01T03:35:54;4.18;;;2.20;;
53207;SDS011;39093;52.788;6.940;2022-08-01T03:38:23;6.82;;;2.30;;
53207;SDS011;39093;52.788;6.940;2022-08-01T03:40:56;6.55;;;1.98;;
53207;SDS011;39093;52.788;6.940;2022-08-01T03:46:04;8.93;;;3.33;;
53207;SDS011;39093;52.788;6.940;2022-08-01T03:48:35;4.20;;;1.90;;
53207;SDS011;39093;52.788;6.940;2022-08-01T03:51:05;7.47;;;2.13;;
53207;SDS011;39093;52.788;6.940;2022-08-01T03:53:34;5.18;;;2.08;;
53207;SDS011;39093;52.788;6.940;2022-08-01T03:56:07;4.13;;;1.90;;
53207;SDS011;39093;52.788;6.940;2022-08-01T03:58:38;8.00;;;2.10;;
53207;SDS011;39093;52.788;6.940;2022-08-01T04:01:06;11.82;;;2.75;;
53207;SDS011;39093;52.788;6.940;2022-08-01T04:03:41;8.20;;;2.63;;
53207;SDS011;39093;52.788;6.940;2022-08-01T04:06:08;7.80;;;2.53;;
53207;SDS011;39093;52.788;6.940;2022-08-01T04:08:37;5.20;;;1.80;;
53207;SDS011;39093;52.788;6.940;2022-08-01T04:11:04;7.95;;;2.22;;
53207;SDS011;39093;52.788;6.940;2022-08-01T04:13:31;6.20;;;2.03;;
53207;SDS011;39093;52.788;6.940;2022-08-01T04:16:03;6.20;;;1.80;;
53207;SDS011;39093;52.788;6.940;2022-08-01T04:18:30;8.05;;;1.88;;
53207;SDS011;39093;52.788;6.940;2022-08-01T04:20:58;10.70;;;2.30;;
53207;SDS011;39093;52.788;6.940;2022-08-01T04:23:25;3.60;;;1.90;;
53207;SDS011;39093;52.788;6.940;2022-08-01T04:25:53;6.10;;;1.98;;
53207;SDS011;39093;52.788;6.940;2022-08-01T04:28:23;5.15;;;1.77;;
53207;SDS011;39093;52.788;6.940;2022-08-01T04:30:52;8.35;;;2.13;;
53207;SDS011;39093;52.788;6.940;2022-08-01T04:33:27;6.10;;;2.17;;
53207;SDS011;39093;52.788;6.940;2022-08-01T04:35:56;5.70;;;1.80;;
53207;SDS011;39093;52.788;6.940;2022-08-01T04:38:29;9.05;;;2.20;;
53207;SDS011;39093;52.788;6.940;2022-08-01T04:40:57;7.30;;;1.92;;
53207;SDS011;39093;52.788;6.940;2022-08-01T04:43:35;6.13;;;2.10;;
53207;SDS011;39093;52.788;6.940;2022-08-01T04:46:03;6.57;;;2.10;;
53207;SDS011;39093;52.788;6.940;2022-08-01T04:48:32;6.63;;;1.88;;
53207;SDS011;39093;52.788;6.940;2022-08-01T04:51:00;6.00;;;1.90;;
53207;SDS011;39093;52.788;6.940;2022-08-01T04:53:27;11.73;;;2.33;;
53207;SDS011;39093;52.788;6.940;2022-08-01T04:55:54;8.68;;;2.42;;
53207;SDS011;39093;52.788;6.940;2022-08-01T04:58:21;6.30;;;1.80;;
53207;SDS011;39093;52.788;6.940;2022-08-01T05:00:48;7.47;;;2.10;;
53207;SDS011;39093;52.788;6.940;2022-08-01T05:03:16;5.93;;;1.90;;
53207;SDS011;39093;52.788;6.940;2022-08-01T05:05:43;12.77;;;2.08;;
53207;SDS011;39093;52.788;6.940;2022-08-01T05:08:10;6.95;;;3.08;;
53207;SDS011;39093;52.788;6.940;2022-08-01T05:10:37;10.48;;;2.25;;
53207;SDS011;39093;52.788;6.940;2022-08-01T05:13:04;5.20;;;1.73;;
53207;SDS011;39093;52.788;6.940;2022-08-01T05:15:32;12.68;;;2.50;;
53207;SDS011;39093;52.788;6.940;2022-08-01T05:18:03;10.68;;;2.85;;
53207;SDS011;39093;52.788;6.940;2022-08-01T05:20:30;12.95;;;2.13;;
53207;SDS011;39093;52.788;6.940;2022-08-01T05:22:57;8.25;;;3.22;;
53207;SDS011;39093;52.788;6.940;2022-08-01T05:25:24;9.68;;;2.20;;
53207;SDS011;39093;52.788;6.940;2022-08-01T05:28:11;6.20;;;2.10;;
53207;SDS011;39093;52.788;6.940;2022-08-01T05:30:44;7.25;;;2.22;;
53207;SDS011;39093;52.788;6.940;2022-08-01T05:33:11;6.90;;;1.90;;
53207;SDS011;39093;52.788;6.940;2022-08-01T05:35:38;10.60;;;2.22;;
53207;SDS011;39093;52.788;6.940;2022-08-01T05:38:14;7.38;;;2.67;;
53207;SDS011;39093;52.788;6.940;2022-08-01T05:40:41;7.93;;;2.35;;
53207;SDS011;39093;52.788;6.940;2022-08-01T05:43:08;9.65;;;2.42;;
53207;SDS011;39093;52.788;6.940;2022-08-01T05:45:35;8.07;;;2.78;;
53207;SDS011;39093;52.788;6.940;2022-08-01T05:48:02;12.20;;;3.10;;
53207;SDS011;39093;52.788;6.940;2022-08-01T05:50:29;16.38;;;3.00;;
53207;SDS011;39093;52.788;6.940;2022-08-01T05:52:56;7.93;;;2.30;;
53207;SDS011;39093;52.788;6.940;2022-08-01T05:55:23;5.95;;;3.08;;
53207;SDS011;39093;52.788;6.940;2022-08-01T05:57:50;8.60;;;2.80;;
53207;SDS011;39093;52.788;6.940;2022-08-01T06:00:16;12.52;;;3.88;;
53207;SDS011;39093;52.788;6.940;2022-08-01T06:02:43;8.02;;;3.00;;
53207;SDS011;39093;52.788;6.940;2022-08-01T06:05:11;6.85;;;2.90;;
53207;SDS011;39093;52.788;6.940;2022-08-01T06:07:39;11.70;;;3.17;;
53207;SDS011;39093;52.788;6.940;2022-08-01T06:10:06;8.32;;;3.25;;
53207;SDS011;39093;52.788;6.940;2022-08-01T06:12:34;13.82;;;3.60;;
53207;SDS011;39093;52.788;6.940;2022-08-01T06:15:02;17.88;;;3.85;;
53207;SDS011;39093;52.788;6.940;2022-08-01T06:17:30;13.82;;;5.40;;
53207;SDS011;39093;52.788;6.940;2022-08-01T06:19:56;7.93;;;2.90;;
53207;SDS011;39093;52.788;6.940;2022-08-01T06:22:23;16.50;;;3.45;;
53207;SDS011;39093;52.788;6.940;2022-08-01T06:24:51;14.40;;;2.88;;
53207;SDS011;39093;52.788;6.940;2022-08-01T06:27:18;10.73;;;3.45;;
53207;SDS011;39093;52.788;6.940;2022-08-01T06:29:47;10.15;;;3.25;;
53207;SDS011;39093;52.788;6.940;2022-08-01T06:32:20;11.27;;;3.33;;
53207;SDS011;39093;52.788;6.940;2022-08-01T06:37:19;13.00;;;3.17;;
53207;SDS011;39093;52.788;6.940;2022-08-01T06:39:46;16.73;;;3.13;;
53207;SDS011;39093;52.788;6.940;2022-08-01T06:42:12;13.82;;;3.20;;
53207;SDS011;39093;52.788;6.940;2022-08-01T06:44:41;15.90;;;2.72;;
53207;SDS011;39093;52.788;6.940;2022-08-01T06:47:08;15.45;;;3.03;;
53207;SDS011;39093;52.788;6.940;2022-08-01T06:49:35;15.38;;;4.13;;
53207;SDS011;39093;52.788;6.940;2022-08-01T06:52:02;17.52;;;3.15;;
53207;SDS011;39093;52.788;6.940;2022-08-01T06:54:30;12.15;;;2.85;;
53207;SDS011;39093;52.788;6.940;2022-08-01T06:56:57;9.55;;;2.45;;
53207;SDS011;39093;52.788;6.940;2022-08-01T06:59:24;25.48;;;5.00;;
53207;SDS011;39093;52.788;6.940;2022-08-01T07:01:50;14.02;;;2.83;;
53207;SDS011;39093;52.788;6.940;2022-08-01T07:04:17;12.00;;;2.60;;
53207;SDS011;39093;52.788;6.940;2022-08-01T07:06:44;19.73;;;5.30;;
53207;SDS011;39093;52.788;6.940;2022-08-01T07:09:11;26.65;;;3.92;;
53207;SDS011;39093;52.788;6.940;2022-08-01T07:11:40;19.02;;;3.63;;
53207;SDS011;39093;52.788;6.940;2022-08-01T07:14:07;20.27;;;3.92;;
53207;SDS011;39093;52.788;6.940;2022-08-01T07:16:34;23.98;;;4.00;;
53207;SDS011;39093;52.788;6.940;2022-08-01T07:19:01;18.80;;;3.15;;
53207;SDS011;39093;52.788;6.940;2022-08-01T07:21:28;19.70;;;3.63;;
53207;SDS011;39093;52.788;6.940;2022-08-01T07:24:07;17.00;;;3.08;;
53207;SDS011;39093;52.788;6.940;2022-08-01T07:26:43;20.83;;;3.05;;
53207;SDS011;39093;52.788;6.940;2022-08-01T07:29:19;14.40;;;2.95;;
53207;SDS011;39093;52.788;6.940;2022-08-01T07:31:51;16.42;;;2.70;;
53207;SDS011;39093;52.788;6.940;2022-08-01T07:34:19;13.23;;;2.80;;
53207;SDS011;39093;52.788;6.940;2022-08-01T07:36:47;13.68;;;3.38;;
53207;SDS011;39093;52.788;6.940;2022-08-01T07:39:14;16.00;;;3.20;;
53207;SDS011;39093;52.788;6.940;2022-08-01T07:41:40;17.58;;;3.53;;
53207;SDS011;39093;52.788;6.940;2022-08-01T07:44:27;15.85;;;3.38;;
53207;SDS011;39093;52.788;6.940;2022-08-01T07:46:54;18.88;;;4.10;;
53207;SDS011;39093;52.788;6.940;2022-08-01T07:49:21;21.45;;;3.60;;
53207;SDS011;39093;52.788;6.940;2022-08-01T07:51:48;13.07;;;3.13;;
53207;SDS011;39093;52.788;6.940;2022-08-01T07:54:30;21.88;;;2.85;;
53207;SDS011;39093;52.788;6.940;2022-08-01T07:57:00;15.80;;;3.45;;
53207;SDS011;39093;52.788;6.940;2022-08-01T07:59:28;10.00;;;2.35;;
53207;SDS011;39093;52.788;6.940;2022-08-01T08:01:56;14.88;;;3.20;;
53207;SDS011;39093;52.788;6.940;2022-08-01T08:04:23;20.50;;;3.17;;
53207;SDS011;39093;52.788;6.940;2022-08-01T08:06:50;16.15;;;3.25;;
53207;SDS011;39093;52.788;6.940;2022-08-01T08:09:18;16.40;;;3.67;;
53207;SDS011;39093;52.788;6.940;2022-08-01T08:11:46;13.32;;;2.97;;
53207;SDS011;39093;52.788;6.940;2022-08-01T08:14:17;23.00;;;8.45;;
53207;SDS011;39093;52.788;6.940;2022-08-01T08:16:44;14.63;;;3.30;;
53207;SDS011;39093;52.788;6.940;2022-08-01T08:19:11;10.02;;;3.13;;
53207;SDS011;39093;52.788;6.940;2022-08-01T08:21:38;24.13;;;3.72;;
53207;SDS011;39093;52.788;6.940;2022-08-01T08:24:06;23.58;;;4.00;;
53207;SDS011;39093;52.788;6.940;2022-08-01T08:26:53;18.25;;;3.00;;
53207;SDS011;39093;52.788;6.940;2022-08-01T08:29:21;18.13;;;3.63;;
53207;SDS011;39093;52.788;6.940;2022-08-01T08:31:49;15.30;;;4.25;;
53207;SDS011;39093;52.788;6.940;2022-08-01T08:34:18;13.65;;;2.80;;
53207;SDS011;39093;52.788;6.940;2022-08-01T08:36:46;21.58;;;3.55;;
53207;SDS011;39093;52.788;6.940;2022-08-01T08:39:15;15.75;;;3.20;;
53207;SDS011;39093;52.788;6.940;2022-08-01T08:41:45;20.95;;;4.63;;
53207;SDS011;39093;52.788;6.940;2022-08-01T08:44:15;17.85;;;3.28;;
53207;SDS011;39093;52.788;6.940;2022-08-01T08:46:43;15.10;;;3.20;;
53207;SDS011;39093;52.788;6.940;2022-08-01T08:49:13;12.40;;;2.42;;
53207;SDS011;39093;52.788;6.940;2022-08-01T08:51:44;18.90;;;3.70;;
53207;SDS011;39093;52.788;6.940;2022-08-01T08:54:15;15.85;;;2.70;;
53207;SDS011;39093;52.788;6.940;2022-08-01T08:56:44;15.63;;;3.00;;
53207;SDS011;39093;52.788;6.940;2022-08-01T08:59:12;14.35;;;2.88;;
53207;SDS011;39093;52.788;6.940;2022-08-01T09:01:40;16.88;;;3.10;;
53207;SDS011;39093;52.788;6.940;2022-08-01T09:04:08;17.15;;;3.92;;
53207;SDS011;39093;52.788;6.940;2022-08-01T09:06:35;17.33;;;3.05;;
53207;SDS011;39093;52.788;6.940;2022-08-01T09:09:02;13.95;;;2.85;;
53207;SDS011;39093;52.788;6.940;2022-08-01T09:11:29;19.80;;;2.97;;
53207;SDS011;39093;52.788;6.940;2022-08-01T09:16:38;13.52;;;2.80;;
53207;SDS011;39093;52.788;6.940;2022-08-01T09:19:18;17.48;;;3.70;;
53207;SDS011;39093;52.788;6.940;2022-08-01T09:22:06;16.58;;;4.65;;
53207;SDS011;39093;52.788;6.940;2022-08-01T09:24:36;16.27;;;2.88;;
53207;SDS011;39093;52.788;6.940;2022-08-01T09:27:16;10.85;;;2.72;;
53207;SDS011;39093;52.788;6.940;2022-08-01T09:29:48;17.83;;;3.20;;
53207;SDS011;39093;52.788;6.940;2022-08-01T09:32:30;17.10;;;2.72;;
53207;SDS011;39093;52.788;6.940;2022-08-01T09:35:44;10.57;;;2.65;;
53207;SDS011;39093;52.788;6.940;2022-08-01T09:38:16;14.20;;;2.72;;
53207;SDS011;39093;52.788;6.940;2022-08-01T09:40:45;13.13;;;2.47;;
53207;SDS011;39093;52.788;6.940;2022-08-01T09:43:24;9.75;;;2.33;;
53207;SDS011;39093;52.788;6.940;2022-08-01T09:45:53;15.23;;;2.97;;
53207;SDS011;39093;52.788;6.940;2022-08-01T09:48:24;17.65;;;3.08;;
53207;SDS011;39093;52.788;6.940;2022-08-01T09:50:54;11.80;;;2.88;;
53207;SDS011;39093;52.788;6.940;2022-08-01T09:53:42;20.38;;;3.17;;
53207;SDS011;39093;52.788;6.940;2022-08-01T09:56:18;12.88;;;2.33;;
53207;SDS011;39093;52.788;6.940;2022-08-01T10:01:25;17.48;;;3.20;;
53207;SDS011;39093;52.788;6.940;2022-08-01T10:04:04;9.43;;;2.00;;
53207;SDS011;39093;52.788;6.940;2022-08-01T10:06:39;12.38;;;2.30;;
53207;SDS011;39093;52.788;6.940;2022-08-01T10:09:09;16.67;;;7.28;;
53207;SDS011;39093;52.788;6.940;2022-08-01T10:11:39;8.73;;;2.20;;
53207;SDS011;39093;52.788;6.940;2022-08-01T10:14:10;12.53;;;2.07;;
53207;SDS011;39093;52.788;6.940;2022-08-01T10:16:43;14.75;;;2.55;;
53207;SDS011;39093;52.788;6.940;2022-08-01T10:19:22;22.20;;;2.75;;
53207;SDS011;39093;52.788;6.940;2022-08-01T10:21:54;9.77;;;2.58;;
53207;SDS011;39093;52.788;6.940;2022-08-01T10:24:26;9.18;;;2.25;;
53207;SDS011;39093;52.788;6.940;2022-08-01T10:26:56;9.75;;;2.00;;
53207;SDS011;39093;52.788;6.940;2022-08-01T10:29:46;10.15;;;1.92;;
53207;SDS011;39093;52.788;6.940;2022-08-01T10:32:34;11.32;;;2.03;;
53207;SDS011;39093;52.788;6.940;2022-08-01T10:35:05;14.52;;;2.65;;
53207;SDS011;39093;52.788;6.940;2022-08-01T10:37:40;13.27;;;2.42;;
53207;SDS011;39093;52.788;6.940;2022-08-01T10:40:18;10.95;;;2.22;;
53207;SDS011;39093;52.788;6.940;2022-08-01T10:43:02;14.30;;;2.58;;
53207;SDS011;39093;52.788;6.940;2022-08-01T10:45:29;7.40;;;1.77;;
53207;SDS011;39093;52.788;6.940;2022-08-01T10:48:05;13.05;;;2.03;;
53207;SDS011;39093;52.788;6.940;2022-08-01T10:50:47;10.73;;;2.22;;
53207;SDS011;39093;52.788;6.940;2022-08-01T10:53:17;5.80;;;1.70;;
53207;SDS011;39093;52.788;6.940;2022-08-01T10:58:31;15.80;;;2.13;;
53207;SDS011;39093;52.788;6.940;2022-08-01T11:01:15;14.30;;;2.67;;
53207;SDS011;39093;52.788;6.940;2022-08-01T11:12:05;10.15;;;1.88;;
53207;SDS011;39093;52.788;6.940;2022-08-01T11:15:15;7.57;;;2.00;;
53207;SDS011;39093;52.788;6.940;2022-08-01T12:20:47;8.30;;;1.67;;
53207;SDS011;39093;52.788;6.940;2022-08-01T12:23:22;6.10;;;1.35;;
53207;SDS011;39093;52.788;6.940;2022-08-01T12:25:52;9.40;;;2.38;;
53207;SDS011;39093;52.788;6.940;2022-08-01T12:28:20;6.43;;;1.50;;
53207;SDS011;39093;52.788;6.940;2022-08-01T12:30:47;9.80;;;1.50;;
53207;SDS011;39093;52.788;6.940;2022-08-01T12:33:17;6.75;;;1.20;;
53207;SDS011;39093;52.788;6.940;2022-08-01T12:35:45;10.18;;;1.60;;
53207;SDS011;39093;52.788;6.940;2022-08-01T12:38:20;7.07;;;1.15;;
53207;SDS011;39093;52.788;6.940;2022-08-01T12:43:32;4.80;;;1.00;;
53207;SDS011;39093;52.788;6.940;2022-08-01T12:46:00;6.10;;;1.20;;
53207;SDS011;39093;52.788;6.940;2022-08-01T12:48:28;7.78;;;1.30;;
53207;SDS011;39093;52.788;6.940;2022-08-01T12:50:57;10.48;;;1.65;;
53207;SDS011;39093;52.788;6.940;2022-08-01T12:53:27;10.05;;;1.73;;
53207;SDS011;39093;52.788;6.940;2022-08-01T12:56:07;7.97;;;1.65;;
53207;SDS011;39093;52.788;6.940;2022-08-01T12:58:35;6.60;;;1.42;;
53207;SDS011;39093;52.788;6.940;2022-08-01T13:01:04;3.65;;;1.35;;
53207;SDS011;39093;52.788;6.940;2022-08-01T13:03:32;7.07;;;1.73;;
53207;SDS011;39093;52.788;6.940;2022-08-01T13:05:59;5.50;;;1.73;;
53207;SDS011;39093;52.788;6.940;2022-08-01T13:08:30;5.68;;;1.30;;
53207;SDS011;39093;52.788;6.940;2022-08-01T13:11:02;8.27;;;1.45;;
53207;SDS011;39093;52.788;6.940;2022-08-01T13:13:51;14.65;;;2.67;;
53207;SDS011;39093;52.788;6.940;2022-08-01T13:16:19;3.22;;;1.30;;
53207;SDS011;39093;52.788;6.940;2022-08-01T13:18:59;8.18;;;1.13;;
53207;SDS011;39093;52.788;6.940;2022-08-01T13:21:30;10.27;;;1.80;;
53207;SDS011;39093;52.788;6.940;2022-08-01T13:24:22;7.85;;;1.50;;
53207;SDS011;39093;52.788;6.940;2022-08-01T13:26:57;9.18;;;1.42;;
53207;SDS011;39093;52.788;6.940;2022-08-01T13:29:36;7.00;;;1.55;;
53207;SDS011;39093;52.788;6.940;2022-08-01T13:35:05;5.20;;;1.10;;
53207;SDS011;39093;52.788;6.940;2022-08-01T13:37:34;5.60;;;1.30;;
53207;SDS011;39093;52.788;6.940;2022-08-01T13:40:04;5.88;;;1.08;;
53207;SDS011;39093;52.788;6.940;2022-08-01T13:42:32;6.40;;;1.20;;
53207;SDS011;39093;52.788;6.940;2022-08-01T13:44:59;7.25;;;1.13;;
53207;SDS011;39093;52.788;6.940;2022-08-01T13:47:29;8.48;;;1.67;;
53207;SDS011;39093;52.788;6.940;2022-08-01T13:49:58;4.47;;;1.00;;
53207;SDS011;39093;52.788;6.940;2022-08-01T13:52:29;8.52;;;1.27;;
53207;SDS011;39093;52.788;6.940;2022-08-01T13:54:57;12.57;;;2.15;;
53207;SDS011;39093;52.788;6.940;2022-08-01T13:57:24;8.02;;;1.20;;
53207;SDS011;39093;52.788;6.940;2022-08-01T14:00:03;6.00;;;1.52;;
53207;SDS011;39093;52.788;6.940;2022-08-01T14:02:32;7.28;;;1.65;;
53207;SDS011;39093;52.788;6.940;2022-08-01T14:04:59;5.10;;;2.13;;
53207;SDS011;39093;52.788;6.940;2022-08-01T14:07:28;12.27;;;2.47;;
53207;SDS011;39093;52.788;6.940;2022-08-01T14:09:56;7.03;;;1.23;;
53207;SDS011;39093;52.788;6.940;2022-08-01T14:12:43;4.38;;;1.10;;
53207;SDS011;39093;52.788;6.940;2022-08-01T14:15:11;7.45;;;1.90;;
53207;SDS011;39093;52.788;6.940;2022-08-01T14:17:38;4.13;;;1.40;;
53207;SDS011;39093;52.788;6.940;2022-08-01T14:20:13;5.32;;;1.45;;
53207;SDS011;39093;52.788;6.940;2022-08-01T14:22:40;6.78;;;1.17;;
53207;SDS011;39093;52.788;6.940;2022-08-01T14:25:07;5.13;;;1.20;;
53207;SDS011;39093;52.788;6.940;2022-08-01T14:27:35;4.15;;;1.50;;
53207;SDS011;39093;52.788;6.940;2022-08-01T14:30:03;7.47;;;1.75;;
53207;SDS011;39093;52.788;6.940;2022-08-01T14:32:30;6.05;;;1.30;;
53207;SDS011;39093;52.788;6.940;2022-08-01T14:35:03;5.78;;;1.50;;
53207;SDS011;39093;52.788;6.940;2022-08-01T14:37:31;4.15;;;1.13;;
53207;SDS011;39093;52.788;6.940;2022-08-01T14:42:35;6.05;;;1.77;;
53207;SDS011;39093;52.788;6.940;2022-08-01T14:45:03;3.13;;;1.08;;
53207;SDS011;39093;52.788;6.940;2022-08-01T14:47:35;6.03;;;1.05;;
53207;SDS011;39093;52.788;6.940;2022-08-01T14:50:08;3.95;;;1.17;;
53207;SDS011;39093;52.788;6.940;2022-08-01T14:52:38;7.03;;;1.38;;
53207;SDS011;39093;52.788;6.940;2022-08-01T14:55:06;5.43;;;0.93;;
53207;SDS011;39093;52.788;6.940;2022-08-01T14:57:35;2.88;;;1.38;;
53207;SDS011;39093;52.788;6.940;2022-08-01T15:00:04;5.15;;;0.90;;
53207;SDS011;39093;52.788;6.940;2022-08-01T15:02:33;6.70;;;1.20;;
53207;SDS011;39093;52.788;6.940;2022-08-01T15:05:00;4.72;;;0.82;;
53207;SDS011;39093;52.788;6.940;2022-08-01T15:07:27;4.38;;;1.10;;
53207;SDS011;39093;52.788;6.940;2022-08-01T15:09:53;3.55;;;1.08;;
53207;SDS011;39093;52.788;6.940;2022-08-01T15:12:20;4.65;;;0.90;;
53207;SDS011;39093;52.788;6.940;2022-08-01T15:14:47;3.25;;;0.82;;
53207;SDS011;39093;52.788;6.940;2022-08-01T16:02:46;8.43;;;1.50;;
53207;SDS011;39093;52.788;6.940;2022-08-01T16:05:13;6.07;;;1.17;;
53207;SDS011;39093;52.788;6.940;2022-08-01T16:07:45;7.57;;;1.35;;
53207;SDS011;39093;52.788;6.940;2022-08-01T16:10:27;2.97;;;0.90;;
53207;SDS011;39093;52.788;6.940;2022-08-01T16:12:55;4.75;;;1.10;;
53207;SDS011;39093;52.788;6.940;2022-08-01T16:15:22;5.20;;;0.98;;
53207;SDS011;39093;52.788;6.940;2022-08-01T16:18:01;10.93;;;1.50;;
53207;SDS011;39093;52.788;6.940;2022-08-01T16:20:29;7.25;;;1.52;;
53207;SDS011;39093;52.788;6.940;2022-08-01T16:22:56;7.35;;;1.33;;
53207;SDS011;39093;52.788;6.940;2022-08-01T16:25:23;8.23;;;1.70;;
53207;SDS011;39093;52.788;6.940;2022-08-01T16:27:50;8.43;;;1.75;;
53207;SDS011;39093;52.788;6.940;2022-08-01T16:30:17;4.90;;;1.20;;
53207;SDS011;39093;52.788;6.940;2022-08-01T16:32:44;8.55;;;1.48;;
53207;SDS011;39093;52.788;6.940;2022-08-01T16:35:18;5.63;;;0.95;;
53207;SDS011;39093;52.788;6.940;2022-08-01T16:37:45;4.75;;;0.90;;
53207;SDS011;39093;52.788;6.940;2022-08-01T16:40:12;5.03;;;1.00;;
53207;SDS011;39093;52.788;6.940;2022-08-01T16:42:39;4.90;;;1.23;;
53207;SDS011;39093;52.788;6.940;2022-08-01T16:45:07;4.82;;;1.15;;
53207;SDS011;39093;52.788;6.940;2022-08-01T16:47:39;4.10;;;0.80;;
53207;SDS011;39093;52.788;6.940;2022-08-01T16:50:06;5.13;;;1.05;;
53207;SDS011;39093;52.788;6.940;2022-08-01T16:52:35;4.53;;;1.20;;
53207;SDS011;39093;52.788;6.940;2022-08-01T16:55:08;5.60;;;1.40;;
53207;SDS011;39093;52.788;6.940;2022-08-01T16:57:36;3.63;;;1.08;;
53207;SDS011;39093;52.788;6.940;2022-08-01T17:00:04;8.07;;;1.20;;
53207;SDS011;39093;52.788;6.940;2022-08-01T17:02:33;6.72;;;1.25;;
53207;SDS011;39093;52.788;6.940;2022-08-01T17:05:01;7.22;;;1.30;;
53207;SDS011;39093;52.788;6.940;2022-08-01T17:07:37;10.68;;;1.10;;
53207;SDS011;39093;52.788;6.940;2022-08-01T17:10:04;8.00;;;2.13;;
53207;SDS011;39093;52.788;6.940;2022-08-01T17:12:32;8.00;;;1.83;;
53207;SDS011;39093;52.788;6.940;2022-08-01T17:15:00;8.50;;;1.05;;
53207;SDS011;39093;52.788;6.940;2022-08-01T17:17:27;9.02;;;1.98;;
53207;SDS011;39093;52.788;6.940;2022-08-01T17:19:54;6.72;;;1.60;;
53207;SDS011;39093;52.788;6.940;2022-08-01T17:22:21;3.97;;;1.42;;
53207;SDS011;39093;52.788;6.940;2022-08-01T17:24:48;4.30;;;1.00;;